IHSAA Cross Country Section 32 Date: 10/12/19  Venue: Evansville Mater Dei - Evansville, IN
Events
Men's Events Women's Events
IHSAA Cross Country Section 32 - Boys IHSAA Cross Country Section 32 - Girls
IHSAA Cross Country Section 32 - Girls Team Scores
Rank Team name Total Time Avg. Time Score 1 2 3 4 5 6 7
1 Mt. Vernon 2:38:23 22:37 42 3 4 5 13 17 41 42
2 Evansville Reitz Memorial 2:30:11 21:27 49 1 2 12 15 19 22 26
3 Castle 2:13:58 22:19 73 6 7 14 16 30 37
4 Evansville F.J. Reitz 2:36:19 22:19 79 9 11 18 20 21 25 28
5 Evansville North 2:42:51 23:15 118 8 23 27 29 31 32 35
6 Evansville Mater Dei 2:05:55 25:11 164 10 33 38 39 44
7 Evansville Harrison 2:06:39 25:19 177 24 34 36 40 43
DNF Boonville 0 0 0
DNF Evansville Central 0 0 0
IHSAA Cross Country Section 32 - Girls Individual Results
Start Time: 7:00 PM   Temp: HASH(0x55e084475da8)°F   Wind: HASH(0x55e083d4eb80) mph  
Place Name Year Team Avg. Mile Time Score
1 Morphew, Alli 12 Evansville Reitz Memorial 6:08.2 19:04.0 1
2 Vogel, Clare 12 Evansville Reitz Memorial 6:10.1 19:10.0 2
3 Leverenz, Kori 9 Mt. Vernon 6:22.3 19:48.0 3
4 Leverenz, Kaden 9 Mt. Vernon 6:25.2 19:57.0 4
5 Kloppenburg, Sophie 9 Mt. Vernon 6:28.1 20:06.0 5
6 Porter, Kaitlyn 12 Castle 6:32.6 20:20.0 6
7 Emig, Addison 12 Evansville Central 6:33.6 20:23.0
8 Dewees, Ellen 9 Castle 6:39.4 20:41.0 7
9 Coe, Katherine 10 Evansville North 6:42.0 20:49.0 8
10 Groben, Mackenzie 12 Evansville F.J. Reitz 6:45.5 21:00.0 9
11 Goff, Natalie 12 Signature 6:53.6 21:25.0
12 McLin, Ella 11 Evansville Mater Dei 6:55.8 21:32.0 10
13 Vogt, Taylor 9 Evansville F.J. Reitz 6:57.1 21:36.0 11
14 Haseman, Izzy 12 Evansville Reitz Memorial 6:57.7 21:38.0 12
15 Thompson, Emma 11 Mt. Vernon 6:58.4 21:40.0 13
16 Stpehens, Avery 9 Castle 7:01.0 21:48.0 14
17 Gries, Taylor 12 Evansville Reitz Memorial 7:01.3 21:49.0 15
18 Luker, Shelby 12 Castle 7:02.9 21:54.0 16
19 Bishop, Piper 11 Signature 7:03.5 21:56.0
20 Patel, Prachi 10 Signature 7:03.9 21:57.0
21 Collins, Taylor Dawn 12 Mt. Vernon 7:06.4 22:05.0 17
22 Yanagisawa, Mei 11 Evansville F.J. Reitz 7:07.4 22:08.0 18
23 Bennett, Ally 12 Evansville Reitz Memorial 7:10.0 22:16.0 19
24 Bryan, Hannah 12 Evansville F.J. Reitz 7:12.5 22:24.0 20
25 Fuller, Adison 9 Evansville F.J. Reitz 7:13.2 22:26.0 21
26 Kinkel, Kate 12 Evansville Reitz Memorial 7:21.2 22:51.0 22
27 Yunker, Kara 11 Evansville North 7:21.6 22:52.0 23
28 Barker, Piper 10 Evansville Harrison 7:28.0 23:12.0 24
29 Sibbitt, Mallory 9 Evansville F.J. Reitz 7:29.9 23:18.0 25
30 Anderson, Olivia 11 Evansville Reitz Memorial 7:31.5 23:23.0 26
31 Rittichier, Abby 9 North Posey 7:32.2 23:25.0
32 George, Savannah 9 Evansville North 7:32.8 23:27.0 27
33 Paul, Grace 12 Evansville F.J. Reitz 7:32.8 23:27.0 28
34 Korff, Emily 12 Evansville North 7:33.1 23:28.0 29
35 Kempf, Lily 11 Castle 7:36.0 23:37.0 30
36 Mann, Caitlin 11 Evansville North 7:40.2 23:50.0 31
37 Koberstein, Madelyn 10 Evansville North 7:45.4 24:06.0 32
38 Ahola, Lauren 10 Evansville Mater Dei 7:46.3 24:09.0 33
39 Gansman, Megan 11 Evansville Harrison 7:47.6 24:13.0 34
40 Russell, Emily 9 Boonville 7:48.3 24:15.0
41 King, Marilyn 11 Evansville North 7:49.6 24:19.0 35
42 Vanbibber, Kinley 9 Evansville Harrison 7:50.2 24:21.0 36
43 Tedrow, Ashley 10 Evansville Central 7:54.4 24:34.0
44 Goebel, Emma 12 North Posey 7:55.3 24:37.0
45 Taylor-Schroeder, Emmi 11 Boonville 8:04.4 25:05.0
46 Purdue, Loralee 10 Castle 8:15.0 25:38.0 37
47 Fehrenbacher, Sophia 9 Evansville Mater Dei 8:17.2 25:45.0 38
48 Welte, Charlie 12 Boonville 8:25.0 26:09.0
49 Fehrenbacher, Hannah 12 Evansville Mater Dei 8:32.7 26:33.0 39
50 Aman, Madison 11 Evansville Harrison 8:40.4 26:57.0 40
51 Keller, Kennah 11 Mt. Vernon 8:45.5 27:13.0 41
52 Hammer, Ally 12 Evansville Central 8:47.2 27:18.0
53 Bellew, Kathryn 12 Mt. Vernon 8:52.3 27:34.0 42
54 Albright, Isabella 9 Evansville Harrison 8:59.4 27:56.0 43
55 Macke, Emma 10 Evansville Mater Dei 8:59.4 27:56.0 44
56 Mayberry, Aurora 9 North Posey 9:37.7 29:55.0
57 Fiorelli, Claudia 11 Evansville Bosse 9:48.3 30:28.0
Kremer, Eva 9 Evansville F.J. Reitz DNF
Rush, Peyton 9 Mt. Vernon DNF
Long, Alison 12 Mt. Vernon DNF
Carr, Kaija 11 Evansville Central DNF
Smith, Laney 11 Evansville North DNF
Willett, Taylor 9 Evansville F.J. Reitz DNF
Koch, Lily 12 Evansville Reitz Memorial DNF
Paul, Emma 9 Evansville F.J. Reitz DNF
Fernandez, Barbara Anna 11 Evansville F.J. Reitz DNF
Salee, Kaylen 9 Mt. Vernon DNF
Barsumian, Annabelle 9 Castle DNF
Jung, Grace 12 Evansville Reitz Memorial DNF
Bryant, Baylee 12 Evansville North DNF
Gresham, Emma 9 Boonville DNF
Greenwell, Chloe 12 Castle DNF
McCoy, Anna 12 Evansville Reitz Memorial DNF
Tennyson, Nicole 11 Evansville Central DNF
Schadler, Kate 10 Evansville Reitz Memorial DNF
Phillips, Bracie 10 Boonville DNF
Talley, Ella 11 Evansville F.J. Reitz DNF
Vaughn, Sabrina 12 Mt. Vernon DNF
Abdelhameed, Angie 12 Evansville North DNF
IHSAA Cross Country Section 32 - Boys Team Scores
Rank Team name Total Time Avg. Time Score 1 2 3 4 5 6 7
1 Castle 2:02:37 17:31 43 3 4 9 13 14 25 39
2 Evansville Reitz Memorial 2:03:22 17:37 60 6 10 11 16 17 23 33
3 Evansville F.J. Reitz 2:08:07 18:18 90 5 7 18 29 31 44 56
4 Evansville North 2:06:05 18:00 96 1 12 21 30 32 35 42
5 Evansville Mater Dei 2:11:13 18:44 136 2 22 26 41 45 46 48
6 Evansville Central 2:12:05 18:52 141 19 20 28 34 40 53 55
7 Evansville Harrison 2:16:22 19:28 190 27 36 37 43 47 51 64
8 Mt. Vernon 2:24:05 20:35 196 8 24 49 50 65 67 69
9 North Posey 2:23:17 20:28 259 38 52 54 57 58 61 62
10 Evansville Bosse 2:33:54 21:59 263 15 59 60 63 66 68 70
IHSAA Cross Country Section 32 - Boys Individual Results
Start Time: 7:00 PM   Temp: HASH(0x55e0844166c0)°F   Wind: HASH(0x55e083c2ac48) mph  
Place Name Year Team Avg. Mile Time Score
1 Schmidt, Dean 12 Evansville North 5:13.2 16:13.0 1
2 Schroeder, Dawson 11 Evansville Mater Dei 5:22.2 16:41.0 2
3 Spurling, Tyler 11 Castle 5:23.8 16:46.0 3
4 Monroe, Trevor 10 Castle 5:24.4 16:48.0 4
5 Sibbitt, Easton 11 Evansville F.J. Reitz 5:24.7 16:49.0 5
6 Alvey, Andrew 10 Evansville Reitz Memorial 5:25.4 16:51.0 6
7 Nolan, Alex 10 Evansville F.J. Reitz 5:26.4 16:54.0 7
8 Dike, Braden 11 Mt. Vernon 5:28.3 17:00.0 8
9 Fehr, Owen 12 Castle 5:31.2 17:09.0 9
10 Golba, Andrew 10 Evansville Reitz Memorial 5:31.5 17:10.0 10
11 Dollison, Camren 12 Evansville Reitz Memorial 5:34.4 17:19.0 11
12 Zimmerman, Tyler 10 Evansville North 5:34.4 17:19.0 12
13 Mangum, Andrew 10 Castle 5:35.0 17:21.0 13
14 Worstell, Colton 12 Castle 5:36.3 17:25.0 14
15 Perry, Reese 11 Evansville Bosse 5:40.8 17:39.0 15
16 Thomas, Sean 12 Evansville Reitz Memorial 5:42.1 17:43.0 16
17 Russler, Joseph 12 Evansville Reitz Memorial 5:42.4 17:44.0 17
18 Myers, Tyler 9 Evansville Day 5:42.4 17:44.0
19 Traylor, Zachary 9 Evansville F.J. Reitz 5:43.4 17:47.0 18
20 Villegas, Reynaldo 12 Evansville Central 5:43.7 17:48.0 19
21 Cundiff, Efrem 10 Boonville 5:47.0 17:58.0
22 Briones, Tristan 10 Signature 5:47.0 17:58.0
23 Hooten, Alexander 10 Evansville Central 5:48.6 18:03.0 20
24 McMurray, James 10 Evansville North 5:49.2 18:05.0 21
25 Barnes, Adam 12 Evansville Mater Dei 5:49.2 18:05.0 22
26 Kain, Bennett 12 Evansville Reitz Memorial 5:51.1 18:11.0 23
27 Kelley, Thomas 12 Mt. Vernon 5:51.1 18:11.0 24
28 Monroe, Kaden 12 Castle 5:52.1 18:14.0 25
29 Herr, Evan 11 Evansville Mater Dei 5:52.4 18:15.0 26
30 Hildenbrand, Gabe 9 Evansville Harrison 5:53.1 18:17.0 27
31 King, Nolan 9 Evansville Central 5:53.7 18:19.0 28
32 Hartmann, Kyle 12 Evansville F.J. Reitz 5:54.0 18:20.0 29
33 Shrode, Brenden 11 Evansville North 5:54.4 18:21.0 30
34 Hackney, John 9 Evansville F.J. Reitz 5:54.7 18:22.0 31
35 Spurling, Jacob 11 Evansville North 5:55.0 18:23.0 32
36 Hirsch, Jacob 10 Evansville Reitz Memorial 5:55.3 18:24.0 33
37 Wray, Isaiah 11 Evansville Central 5:56.9 18:29.0 34
38 Wagner, Landon 11 Evansville North 5:56.9 18:29.0 35
39 Hart, Jordan 12 Evansville Harrison 6:03.4 18:49.0 36
40 Ott, Cade 12 Evansville Harrison 6:04.0 18:51.0 37
41 Basham, Riley 10 North Posey 6:04.6 18:53.0 38
42 Stephens, Cade 11 Castle 6:05.0 18:54.0 39
43 Nakamura, Tensei 12 Evansville Central 6:05.3 18:55.0 40
44 VanBibber, Jacob 12 Evansville Mater Dei 6:08.5 19:05.0 41
45 Lamey, Brayden 11 Evansville North 6:11.7 19:15.0 42
46 Grimes, Kole 12 Evansville Harrison 6:13.7 19:21.0 43
47 Motz, Garrett 9 Evansville F.J. Reitz 6:14.0 19:22.0 44
48 Pollock, Lane 10 Boonville 6:17.8 19:34.0
49 Ankers, Wes 10 Evansville Mater Dei 6:18.2 19:35.0 45
50 Kuhn, Isaac 12 Evansville Mater Dei 6:18.8 19:37.0 46
51 Rorie, Caleb 11 Evansville Harrison 6:20.4 19:42.0 47
52 Scheller, Joe 12 Evansville Mater Dei 6:24.6 19:55.0 48
53 Tucker, Carson 9 Mt. Vernon 6:24.6 19:55.0 49
54 Sutfin, Ethan 9 Mt. Vernon 6:24.6 19:55.0 50
55 Sanchez, Gilberto 12 Evansville Harrison 6:25.6 19:58.0 51
56 Wheeler, Gavin 9 North Posey 6:26.9 20:02.0 52
57 Smith, Ramzi 11 Evansville Central 6:30.7 20:14.0 53
58 Bauer, Brayden 10 North Posey 6:31.7 20:17.0 54
59 Beaven, Michael 9 Evansville Central 6:31.7 20:17.0 55
60 Wood, Hayden 11 Evansville F.J. Reitz 6:36.8 20:33.0 56
61 Sorrell, Andon 10 North Posey 6:37.5 20:35.0 57
62 Inverso, Ethan 11 Boonville 6:39.4 20:41.0
63 French, Justin 11 North Posey 6:44.9 20:58.0 58
64 Powell, Kiyron 12 Evansville Bosse 6:46.5 21:03.0 59
65 Pace, Xavier 10 Evansville Bosse 6:48.1 21:08.0 60
66 Vannice, Zach 10 North Posey 6:50.0 21:14.0 61
67 Lupfer, Camden 10 North Posey 6:51.3 21:18.0 62
68 Leavell, Trey 12 Evansville Bosse 6:52.9 21:23.0 63
69 Lind, Jayson 12 Evansville Harrison 6:53.2 21:24.0 64
70 Strawn, Connor 9 Signature 7:01.3 21:49.0
71 Branson, Lane 10 Mt. Vernon 7:04.5 21:59.0 65
72 Schott, Brenjamin 10 Signature 7:07.4 22:08.0
73 Dishman, Luke 12 Signature 7:18.7 22:43.0
74 Williams, Chaz 9 Evansville Bosse 7:26.4 23:07.0 66
75 Luckett, Micah 9 Mt. Vernon 7:30.9 23:21.0 67
76 Feltner, Styles 10 Evansville Bosse 7:36.0 23:37.0 68
77 Morris, Blake 11 Mt. Vernon 7:38.3 23:44.0 69
78 Sanford, Kolten 12 Evansville Bosse 8:21.1 25:57.0 70
Sullivan, Sid 11 Evansville Central DNF
Sheriff, Jonah 10 Evansville Central DNF
Messel, Ethan 9 Evansville Mater Dei DNF
Harms, Malaki 9 Mt. Vernon DNF
Goedde, Michael 12 North Posey DNF
Dahlquist, Jude 9 Castle DNF
Bollier, London 10 Evansville F.J. Reitz DNF
Williams, Zxavien 9 Evansville Harrison DNF
Wray, Jonah 10 Evansville Central DNF
Carter, Nicholas 12 Evansville Mater Dei DNF
Hardin, Bo 11 Evansville Central DNF
Allison, Elijah 9 Evansville F.J. Reitz DNF
Freeman, Levi 9 North Posey DNF
Allen, Seth 10 Evansville North DNF
Dewar, Seth 11 Mt. Vernon DNF
Heck, Brandon 10 Boonville DNF
Kissel, Ethan 9 Evansville Mater Dei DNF
Alstadt, Keith 9 Mt. Vernon DNF
White, Robert 11 Castle DNF
McMinn, Gavin 9 Evansville Reitz Memorial DNF
Orsby, Kellie 11 Evansville Bosse DNF
Sloan, Benjamin 12 Evansville Reitz Memorial DNF
Greaney, Conor 10 Evansville Mater Dei DNF
Burns, Isaac 12 Evansville North DNF
Feller, Ryan 9 Evansville Reitz Memorial DNF
Meunier, Ethan 12 Evansville Reitz Memorial DNF
Scheller, Jacob 9 Evansville Mater Dei DNF
Hammonds, William 9 Evansville F.J. Reitz DNF
Last Name, First Name 0 Team DNF
Podewils, Blake 9 Evansville Central DNF
Gorman, Wilson 9 Evansville F.J. Reitz DNF
Martin, Grant 11 Evansville Mater Dei DNF
Saunders, Keandre 11 Evansville Central DNF
Redman, Tanner 9 North Posey DNF
Land, Gabriel 9 Castle DNF
Orth, Will 12 Evansville Mater Dei DNF
Kelley, Blaise 11 Evansville Mater Dei DNF
Vincent, Cooper 9 Evansville Harrison DNF
Fehr, Blake 12 Evansville North DNF
Shake, Preston 12 Evansville Reitz Memorial DNF
Ely, Nathan 10 Evansville F.J. Reitz DNF